createdAt,value
2019-06-01T00:00:11.009Z,99517.84
2019-06-01T00:02:29.601Z,99528.34
2019-06-01T00:04:58.241Z,99525.72
2019-06-01T00:07:26.877Z,99526.19
2019-06-01T00:09:55.514Z,99521.58
2019-06-01T00:12:24.082Z,99533.12
2019-06-01T00:14:52.655Z,99526.02
2019-06-01T00:17:21.225Z,99524.58
2019-06-01T00:19:50.320Z,99528.73
2019-06-01T00:22:18.965Z,99523.98
2019-06-01T00:24:48.058Z,99527.73
2019-06-01T00:27:16.623Z,99523.46
2019-06-01T00:29:45.257Z,99517.41
2019-06-01T00:32:13.777Z,99519.98
2019-06-01T00:34:43.521Z,99516.39
2019-06-01T00:37:12.187Z,99516.45
2019-06-01T00:39:41.664Z,99525.77
2019-06-01T00:42:10.258Z,99520.13
2019-06-01T00:44:38.831Z,99522.67
2019-06-01T00:47:07.399Z,99522.16
2019-06-01T00:49:36.070Z,99512.27
2019-06-01T00:52:04.696Z,99513.23
2019-06-01T00:54:33.244Z,99509.30
2019-06-01T00:57:01.797Z,99512.77
2019-06-01T00:59:30.460Z,99509.55
2019-06-01T01:01:59.040Z,99509.03
2019-06-01T01:04:27.610Z,99512.72
2019-06-01T01:06:56.147Z,99501.80
2019-06-01T01:09:24.701Z,99501.97
2019-06-01T01:11:53.392Z,99498.74
2019-06-01T01:14:21.932Z,99496.72
2019-06-01T01:16:51.663Z,99498.20
2019-06-01T01:19:20.276Z,99490.87
2019-06-01T01:21:50.349Z,99491.59
2019-06-01T01:24:18.945Z,99497.64
2019-06-01T01:26:48.473Z,99489.30
2019-06-01T01:29:17.142Z,99490.98
2019-06-01T01:31:45.629Z,99487.30
2019-06-01T01:34:14.186Z,99493.21
2019-06-01T01:36:42.757Z,99493.93
2019-06-01T01:39:11.321Z,99496.09
2019-06-01T01:41:39.831Z,99495.70
2019-06-01T01:44:08.403Z,99497.75
2019-06-01T01:46:36.955Z,99494.80
2019-06-01T01:49:05.581Z,99493.33
2019-06-01T01:51:34.141Z,99493.99
2019-06-01T01:54:04.489Z,99494.70
2019-06-01T01:56:33.173Z,99494.97
2019-06-01T01:59:04.132Z,99499.70
2019-06-01T02:01:32.001Z,99491.69
2019-06-01T02:04:00.501Z,99484.19
2019-06-01T02:06:29.541Z,99483.34
2019-06-01T02:08:59.216Z,99481.86
2019-06-01T02:11:28.029Z,99479.70
2019-06-01T02:13:57.795Z,99479.21
2019-06-01T02:16:26.483Z,99475.55
2019-06-01T02:18:55.957Z,99473.08
2019-06-01T02:21:25.489Z,99460.27
2019-06-01T02:23:54.847Z,99457.39
2019-06-01T02:26:23.712Z,99468.22
2019-06-01T02:28:53.173Z,99478.29
2019-06-01T02:31:39.767Z,99471.89
2019-06-01T02:33:52.058Z,99476.84
2019-06-01T02:36:20.630Z,99477.53
2019-06-01T02:41:23.926Z,99477.88
2019-06-01T02:43:52.488Z,99483.89
2019-06-01T02:46:21.063Z,99491.39
2019-06-01T02:48:49.559Z,99492.83
2019-06-01T02:51:18.209Z,99493.96
2019-06-01T02:53:46.774Z,99486.22
2019-06-01T02:56:15.347Z,99487.40
2019-06-01T02:58:43.987Z,99487.11
2019-06-01T03:01:34.219Z,99486.01
2019-06-01T03:04:07.782Z,99484.18
2019-06-01T03:06:39.408Z,99489.35
2019-06-01T03:09:09.986Z,99488.63
2019-06-01T03:11:40.151Z,99490.33
2019-06-01T03:14:10.616Z,99491.34
2019-06-01T03:16:41.298Z,99497.91
2019-06-01T03:19:09.975Z,99501.55
2019-06-01T03:21:38.815Z,99500.06
2019-06-01T03:24:13.249Z,99495.06
2019-06-01T03:26:44.188Z,99496.59
2019-06-01T03:29:16.486Z,99496.84
2019-06-01T03:31:45.715Z,99503.74
2019-06-01T03:34:14.512Z,99505.17
2019-06-01T03:36:43.812Z,99506.28
2019-06-01T03:39:13.109Z,99509.62
2019-06-01T03:41:41.969Z,99507.45
2019-06-01T03:44:10.609Z,99512.39
2019-06-01T03:46:39.173Z,99511.52
2019-06-01T03:49:07.911Z,99511.68
2019-06-01T03:51:36.548Z,99521.36
2019-06-01T03:54:06.852Z,99522.02
2019-06-01T03:56:35.817Z,99520.86
2019-06-01T03:59:05.088Z,99521.80
2019-06-01T04:01:33.930Z,99523.05
2019-06-01T04:04:03.063Z,99523.63
2019-06-01T04:06:31.834Z,99527.67
2019-06-01T04:09:01.574Z,99528.40
2019-06-01T04:11:30.295Z,99528.83
2019-06-01T04:13:58.824Z,99537.78
2019-06-01T04:16:27.491Z,99540.28
2019-06-01T04:18:56.145Z,99541.24
2019-06-01T04:21:24.715Z,99535.06
2019-06-01T04:23:53.324Z,99536.41
2019-06-01T04:26:21.961Z,99538.22
2019-06-01T04:28:50.494Z,99539.92
2019-06-01T04:31:19.029Z,99533.36
2019-06-01T04:33:47.658Z,99540.23
2019-06-01T04:36:16.258Z,99542.88
2019-06-01T04:38:44.828Z,99546.27
2019-06-01T04:41:14.109Z,99541.22
2019-06-01T04:43:42.796Z,99542.38
2019-06-01T04:46:12.338Z,99542.38
2019-06-01T04:48:41.290Z,99549.38
2019-06-01T04:51:11.713Z,99546.59
2019-06-01T04:53:40.219Z,99547.27
2019-06-01T04:56:09.085Z,99550.50
2019-06-01T04:58:37.878Z,99550.81
2019-06-01T05:01:06.918Z,99550.03
2019-06-01T05:03:35.595Z,99549.72
2019-06-01T05:06:05.066Z,99546.39
2019-06-01T05:08:33.826Z,99545.02
2019-06-01T05:11:05.228Z,99542.69
2019-06-01T05:13:32.855Z,99539.64
2019-06-01T05:16:01.495Z,99543.75
2019-06-01T05:18:30.138Z,99545.28
2019-06-01T05:20:58.706Z,99550.23
2019-06-01T05:23:27.387Z,99542.67
2019-06-01T05:25:56.021Z,99542.67
2019-06-01T05:28:24.695Z,99541.23
2019-06-01T05:30:53.333Z,99540.83
2019-06-01T05:33:36.506Z,99540.02
2019-06-01T05:35:52.291Z,99538.47
2019-06-01T05:38:20.839Z,99532.86
2019-06-01T05:40:49.404Z,99532.86
2019-06-01T05:43:20.871Z,99543.75
2019-06-01T05:45:48.300Z,99544.08
2019-06-01T05:48:23.617Z,99547.66
2019-06-01T05:50:47.294Z,99547.66
2019-06-01T05:53:16.721Z,99548.53
2019-06-01T05:55:45.298Z,99547.35
2019-06-01T05:58:15.104Z,99538.70
2019-06-01T06:00:44.403Z,99547.31
2019-06-01T06:03:17.766Z,99541.42
2019-06-01T06:05:43.279Z,99536.63
2019-06-01T06:08:12.707Z,99536.63
2019-06-01T06:10:42.337Z,99534.64
2019-06-01T06:13:11.151Z,99539.56
2019-06-01T06:15:39.839Z,99543.53
2019-06-01T06:18:08.324Z,99539.10
2019-06-01T06:20:36.936Z,99539.09
2019-06-01T06:23:05.562Z,99541.81
2019-06-01T06:25:36.350Z,99537.00
2019-06-01T06:28:04.514Z,99543.54
2019-06-01T06:30:33.156Z,99541.17
2019-06-01T06:33:01.838Z,99537.95
2019-06-01T06:35:30.396Z,99536.72
2019-06-01T06:37:59.029Z,99537.89
2019-06-01T06:40:27.707Z,99534.63
2019-06-01T06:42:56.346Z,99536.36
2019-06-01T06:45:25.035Z,99535.25
2019-06-01T06:47:53.598Z,99528.30
2019-06-01T06:50:23.457Z,99534.02
2019-06-01T06:52:52.199Z,99527.05
2019-06-01T06:55:21.940Z,99531.34
2019-06-01T06:57:50.502Z,99528.48
2019-06-01T07:00:20.616Z,99529.84
2019-06-01T07:02:49.276Z,99532.03
2019-06-01T07:05:19.217Z,99532.61
2019-06-01T07:07:47.997Z,99539.61
2019-06-01T07:10:17.896Z,99534.35
2019-06-01T07:12:46.704Z,99532.22
2019-06-01T07:15:15.341Z,99529.66
2019-06-01T07:17:43.856Z,99530.57
2019-06-01T07:20:12.502Z,99531.80
2019-06-01T07:22:41.019Z,99526.33
2019-06-01T07:25:11.131Z,99518.19
2019-06-01T07:27:39.793Z,99518.14
2019-06-01T07:30:08.430Z,99516.38
2019-06-01T07:32:36.996Z,99502.91
2019-06-01T07:35:08.696Z,99504.16
2019-06-01T07:37:37.266Z,99508.63
2019-06-01T07:40:06.612Z,99510.93
2019-06-01T07:42:35.665Z,99508.97
2019-06-01T07:45:06.532Z,99511.03
2019-06-01T07:47:35.223Z,99512.02
2019-06-01T07:50:05.355Z,99511.76
2019-06-01T07:52:33.994Z,99516.73
2019-06-01T07:55:02.581Z,99515.52
2019-06-01T07:57:31.800Z,99506.72
2019-06-01T08:00:03.164Z,99502.09
2019-06-01T08:02:33.002Z,99501.56
2019-06-01T08:05:01.586Z,99503.92
2019-06-01T08:07:31.202Z,99498.59
2019-06-01T08:09:59.985Z,99501.06
2019-06-01T08:12:29.653Z,99490.95
2019-06-01T08:14:58.481Z,99498.52
2019-06-01T08:17:28.101Z,99498.47
2019-06-01T08:19:56.793Z,99493.19
2019-06-01T08:22:25.996Z,99493.76
2019-06-01T08:24:54.622Z,99491.73
2019-06-01T08:27:24.348Z,99489.66
2019-06-01T08:29:53.168Z,99491.03
2019-06-01T08:32:22.642Z,99494.53
2019-06-01T08:35:07.315Z,99487.20
2019-06-01T08:37:21.715Z,99484.17
2019-06-01T08:39:51.763Z,99484.53
2019-06-01T08:42:20.391Z,99482.16
2019-06-01T08:44:49.026Z,99484.28
2019-06-01T08:47:17.706Z,99477.25
2019-06-01T08:49:46.269Z,99479.81
2019-06-01T08:52:14.871Z,99482.92
2019-06-01T08:54:43.410Z,99483.24
2019-06-01T08:57:12.077Z,99480.55
2019-06-01T08:59:40.731Z,99480.15
2019-06-01T09:02:09.360Z,99478.06
2019-06-01T09:04:37.973Z,99477.02
2019-06-01T09:07:06.618Z,99471.82
2019-06-01T09:09:35.332Z,99470.40
2019-06-01T09:12:06.490Z,99481.01
2019-06-01T09:14:35.598Z,99474.75
2019-06-01T09:17:04.337Z,99470.91
2019-06-01T09:19:33.580Z,99467.59
2019-06-01T09:22:02.231Z,99465.63
2019-06-01T09:24:31.935Z,99463.06
2019-06-01T09:27:00.673Z,99461.41
2019-06-01T09:29:30.051Z,99465.91
2019-06-01T09:31:58.836Z,99458.76
2019-06-01T09:34:28.437Z,99453.58
2019-06-01T09:36:57.053Z,99453.01
2019-06-01T09:39:26.599Z,99450.78
2019-06-01T09:41:55.270Z,99446.73
2019-06-01T09:44:23.897Z,99440.14
2019-06-01T09:46:52.543Z,99447.95
2019-06-01T09:49:21.178Z,99431.50
2019-06-01T09:51:49.818Z,99424.13
2019-06-01T09:54:18.423Z,99423.36
2019-06-01T09:56:47.062Z,99421.55
2019-06-01T09:59:15.729Z,99420.70
2019-06-01T10:01:47.559Z,99416.19
2019-06-01T10:04:16.276Z,99415.26
2019-06-01T10:06:44.919Z,99414.12
2019-06-01T10:09:13.493Z,99410.50
2019-06-01T10:11:42.465Z,99410.09
2019-06-01T10:14:11.239Z,99407.24
2019-06-01T10:16:39.828Z,99403.29
2019-06-01T10:19:08.490Z,99405.30
2019-06-01T10:21:38.041Z,99401.82
2019-06-01T10:24:06.807Z,99396.06
2019-06-01T10:26:35.726Z,99396.03
2019-06-01T10:29:04.906Z,99397.22
2019-06-01T10:31:34.681Z,99391.90
2019-06-01T10:34:03.761Z,99393.31
2019-06-01T10:36:33.961Z,99389.61
2019-06-01T10:39:02.717Z,99384.28
2019-06-01T10:41:31.348Z,99388.22
2019-06-01T10:43:59.847Z,99393.78
2019-06-01T10:46:28.458Z,99379.21
2019-06-01T10:48:59.720Z,99389.61
2019-06-01T10:51:28.351Z,99391.94
2019-06-01T10:53:56.861Z,99388.44
2019-06-01T10:56:25.425Z,99390.97
2019-06-01T10:59:00.121Z,99386.28
2019-06-01T11:01:24.261Z,99390.41
2019-06-01T11:03:52.933Z,99383.82
2019-06-01T11:06:36.237Z,99384.41
2019-06-01T11:08:51.884Z,99380.59
2019-06-01T11:11:20.442Z,99373.19
2019-06-01T11:13:49.040Z,99370.79
2019-06-01T11:16:17.690Z,99370.32
2019-06-01T11:18:46.365Z,99359.55
2019-06-01T11:21:15.002Z,99361.74
2019-06-01T11:23:46.383Z,99360.97
2019-06-01T11:26:14.001Z,99361.11
2019-06-01T11:28:44.235Z,99367.13
2019-06-01T11:31:12.846Z,99359.45
2019-06-01T11:33:42.037Z,99367.62
2019-06-01T11:36:10.959Z,99359.97
2019-06-01T11:38:40.440Z,99358.69
2019-06-01T11:41:09.145Z,99350.42
2019-06-01T11:43:38.653Z,99347.42
2019-06-01T11:46:10.215Z,99348.27
2019-06-01T11:48:39.316Z,99355.06
2019-06-01T11:51:08.103Z,99348.94
2019-06-01T11:53:37.332Z,99354.80
2019-06-01T11:56:06.089Z,99354.69
2019-06-01T11:58:37.249Z,99358.17
2019-06-01T12:01:05.925Z,99354.05
2019-06-01T12:03:35.544Z,99351.95
2019-06-01T12:06:04.670Z,99342.83
2019-06-01T12:08:34.226Z,99340.97
2019-06-01T12:11:03.080Z,99343.80
2019-06-01T12:13:31.558Z,99337.67
2019-06-01T12:16:00.127Z,99335.45
2019-06-01T12:18:28.739Z,99339.00
2019-06-01T12:20:57.371Z,99336.28
2019-06-01T12:23:25.861Z,99334.52
2019-06-01T12:25:54.534Z,99330.73
2019-06-01T12:28:23.084Z,99328.25
2019-06-01T12:30:51.609Z,99330.44
2019-06-01T12:33:22.922Z,99327.12
2019-06-01T12:35:51.539Z,99326.06
2019-06-01T12:38:20.213Z,99335.95
2019-06-01T12:40:48.846Z,99323.94
2019-06-01T12:43:17.486Z,99321.41
2019-06-01T12:45:46.048Z,99325.78
2019-06-01T12:48:14.630Z,99324.44
2019-06-01T12:50:47.799Z,99322.94
2019-06-01T12:53:14.383Z,99318.19
2019-06-01T12:55:43.016Z,99317.94
2019-06-01T12:58:11.617Z,99320.06
2019-06-01T13:00:40.415Z,99312.25
2019-06-01T13:03:09.089Z,99311.68
2019-06-01T13:05:37.654Z,99316.36
2019-06-01T13:08:06.331Z,99314.75
2019-06-01T13:10:34.898Z,99313.95
2019-06-01T13:13:03.569Z,99309.27
2019-06-01T13:15:32.198Z,99313.71
2019-06-01T13:18:00.728Z,99301.39
2019-06-01T13:20:29.294Z,99299.28
2019-06-01T13:22:57.960Z,99300.02
2019-06-01T13:25:26.595Z,99300.18
2019-06-01T13:27:55.200Z,99300.34
2019-06-01T13:30:23.836Z,99291.58
2019-06-01T13:32:52.840Z,99297.61
2019-06-01T13:35:21.638Z,99298.56
2019-06-01T13:37:50.974Z,99297.48
2019-06-01T13:40:20.549Z,99287.49
2019-06-01T13:42:49.250Z,99275.33
2019-06-01T13:45:17.999Z,99277.45
2019-06-01T13:47:47.651Z,99274.22
2019-06-01T13:50:16.802Z,99271.75
2019-06-01T13:52:45.826Z,99274.39
2019-06-01T13:55:14.823Z,99271.77
2019-06-01T13:57:44.219Z,99274.61
2019-06-01T14:00:15.850Z,99277.75
2019-06-01T14:02:47.674Z,99279.34
2019-06-01T14:05:13.760Z,99279.11
2019-06-01T14:07:42.337Z,99272.80
2019-06-01T14:10:11.087Z,99269.31
2019-06-01T14:12:39.599Z,99262.30
2019-06-01T14:15:08.454Z,99255.89
2019-06-01T14:17:39.733Z,99262.75
2019-06-01T14:20:08.818Z,99256.77
2019-06-01T14:22:37.489Z,99259.09
2019-06-01T14:25:13.579Z,99254.28
2019-06-01T14:27:37.974Z,99248.88
2019-06-01T14:30:07.719Z,99251.75
2019-06-01T14:32:36.238Z,99246.50
2019-06-01T14:35:09.017Z,99250.70
2019-06-01T14:37:37.624Z,99253.31
2019-06-01T14:40:07.256Z,99247.46
2019-06-01T14:42:35.861Z,99241.66
2019-06-01T14:45:07.364Z,99238.44
2019-06-01T14:47:35.934Z,99233.88
2019-06-01T14:50:09.228Z,99230.20
2019-06-01T14:52:37.899Z,99229.84
2019-06-01T14:55:07.867Z,99233.17
2019-06-01T14:57:36.515Z,99220.42
2019-06-01T15:00:07.392Z,99228.88
2019-06-01T15:02:36.053Z,99226.88
2019-06-01T15:05:08.940Z,99234.36
2019-06-01T15:07:37.606Z,99230.51
2019-06-01T15:10:08.239Z,99228.11
2019-06-01T15:12:36.882Z,99230.67
2019-06-01T15:15:09.360Z,99228.35
2019-06-01T15:17:37.950Z,99225.27
2019-06-01T15:20:08.584Z,99223.56
2019-06-01T15:22:37.219Z,99221.48
2019-06-01T15:25:09.334Z,99221.53
2019-06-01T15:27:38.010Z,99214.99
2019-06-01T15:30:07.688Z,99209.98
2019-06-01T15:32:38.897Z,99208.92
2019-06-01T15:35:11.620Z,99207.22
2019-06-01T15:37:40.189Z,99217.50
2019-06-01T15:40:09.522Z,99223.51
2019-06-01T15:42:40.885Z,99212.47
2019-06-01T15:45:10.719Z,99211.13
2019-06-01T15:47:39.366Z,99214.30
2019-06-01T15:50:09.351Z,99220.77
2019-06-01T15:52:38.057Z,99219.70
2019-06-01T15:55:07.792Z,99210.84
2019-06-01T15:57:36.428Z,99213.55
2019-06-01T16:00:08.969Z,99209.57
2019-06-01T16:02:37.622Z,99209.98
2019-06-01T16:05:07.926Z,99207.27
2019-06-01T16:07:36.576Z,99212.07
2019-06-01T16:10:08.326Z,99217.73
2019-06-01T16:12:37.311Z,99231.55
2019-06-01T16:15:08.317Z,99234.86
2019-06-01T16:17:36.981Z,99239.84
2019-06-01T16:20:10.492Z,99241.81
2019-06-01T16:22:39.245Z,99239.61
2019-06-01T16:25:08.280Z,99235.64
2019-06-01T16:27:36.965Z,99238.02
2019-06-01T16:30:09.042Z,99249.27
2019-06-01T16:32:39.610Z,99247.20
2019-06-01T16:35:08.292Z,99249.28
2019-06-01T16:37:36.884Z,99251.11
2019-06-01T16:40:09.902Z,99254.97
2019-06-01T16:42:37.789Z,99257.44
2019-06-01T16:45:07.865Z,99260.70
2019-06-01T16:47:36.542Z,99268.22
2019-06-01T16:50:09.599Z,99265.31
2019-06-01T16:52:38.292Z,99263.70
2019-06-01T16:55:08.186Z,99269.54
2019-06-01T16:57:36.824Z,99263.16
2019-06-01T17:00:10.274Z,99263.94
2019-06-01T17:02:38.953Z,99264.77
2019-06-01T17:05:08.395Z,99258.88
2019-06-01T17:07:36.978Z,99256.13
2019-06-01T17:10:23.884Z,99255.86
2019-06-01T17:12:42.291Z,99259.97
2019-06-01T17:15:08.944Z,99266.97
2019-06-01T17:17:37.594Z,99270.51
2019-06-01T17:20:07.373Z,99267.28
2019-06-01T17:22:39.063Z,99267.27
2019-06-01T17:25:08.507Z,99265.61
2019-06-01T17:27:37.017Z,99267.09
2019-06-01T17:30:10.004Z,99256.20
2019-06-01T17:32:36.640Z,99262.20
2019-06-01T17:35:07.071Z,99264.17
2019-06-01T17:37:35.650Z,99267.94
2019-06-01T17:40:06.599Z,99268.09
2019-06-01T17:42:35.218Z,99273.95
2019-06-01T17:45:06.393Z,99270.45
2019-06-01T17:47:40.968Z,99276.96
2019-06-01T17:50:09.752Z,99279.62
2019-06-01T17:52:38.521Z,99279.52
2019-06-01T17:55:07.263Z,99286.87
2019-06-01T17:57:35.909Z,99289.20
2019-06-01T18:00:07.685Z,99286.16
2019-06-01T18:02:36.411Z,99279.97
2019-06-01T18:05:06.436Z,99286.52
2019-06-01T18:07:35.113Z,99286.17
2019-06-01T18:10:08.263Z,99285.40
2019-06-01T18:12:37.115Z,99281.80
2019-06-01T18:15:10.267Z,99283.28
2019-06-01T18:17:38.983Z,99287.26
2019-06-01T18:20:08.962Z,99303.41
2019-06-01T18:22:37.616Z,99294.31
2019-06-01T18:25:10.498Z,99298.02
2019-06-01T18:27:39.240Z,99301.14
2019-06-01T18:30:10.868Z,99305.34
2019-06-01T18:32:39.544Z,99297.70
2019-06-01T18:35:09.345Z,99296.67
2019-06-01T18:37:38.139Z,99295.95
2019-06-01T18:40:08.052Z,99297.54
2019-06-01T18:42:37.380Z,99305.36
2019-06-01T18:45:08.206Z,99305.18
2019-06-01T18:47:36.944Z,99317.41
2019-06-01T18:50:07.941Z,99309.96
2019-06-01T18:52:36.632Z,99311.14
2019-06-01T18:55:08.630Z,99319.85
2019-06-01T18:57:40.213Z,99317.29
2019-06-01T19:00:12.023Z,99331.37
2019-06-01T19:02:40.427Z,99335.56
2019-06-01T19:05:09.306Z,99339.68
2019-06-01T19:07:37.953Z,99335.09
2019-06-01T19:10:09.370Z,99336.81
2019-06-01T19:12:38.112Z,99341.42
2019-06-01T19:15:15.642Z,99344.63
2019-06-01T19:17:38.089Z,99349.23
2019-06-01T19:20:08.478Z,99352.40
2019-06-01T19:22:37.221Z,99354.84
2019-06-01T19:25:06.915Z,99358.75
2019-06-01T19:27:35.558Z,99361.39
2019-06-01T19:30:09.018Z,99364.01
2019-06-01T19:32:37.960Z,99365.45
2019-06-01T19:35:07.607Z,99363.02
2019-06-01T19:37:38.525Z,99361.39
2019-06-01T19:40:09.329Z,99365.31
2019-06-01T19:42:38.044Z,99369.76
2019-06-01T19:45:14.366Z,99380.86
2019-06-01T19:47:37.749Z,99382.09
2019-06-01T19:50:08.236Z,99383.64
2019-06-01T19:52:36.796Z,99371.97
2019-06-01T19:55:08.782Z,99364.62
2019-06-01T19:57:37.558Z,99372.14
2019-06-01T20:00:10.143Z,99377.73
2019-06-01T20:02:38.811Z,99377.26
2019-06-01T20:05:07.585Z,99376.70
2019-06-01T20:07:36.144Z,99378.13
2019-06-01T20:10:07.753Z,99391.16
2019-06-01T20:12:36.402Z,99404.63
2019-06-01T20:15:06.955Z,99404.24
2019-06-01T20:17:35.592Z,99397.83
2019-06-01T20:20:10.762Z,99395.20
2019-06-01T20:22:39.273Z,99388.88
2019-06-01T20:25:08.814Z,99376.30
2019-06-01T20:27:37.432Z,99367.91
2019-06-01T20:30:07.537Z,99372.03
2019-06-01T20:32:36.179Z,99385.52
2019-06-01T20:35:05.931Z,99389.20
2019-06-01T20:37:34.496Z,99386.48
2019-06-01T20:40:03.778Z,99385.31
2019-06-01T20:42:33.068Z,99393.81
2019-06-01T20:45:01.725Z,99392.70
2019-06-01T20:47:30.244Z,99395.56
2019-06-01T20:49:58.804Z,99399.06
2019-06-01T20:52:28.105Z,99395.98
2019-06-01T20:54:56.771Z,99402.77
2019-06-01T20:57:25.292Z,99404.95
2019-06-01T20:59:53.791Z,99416.23
2019-06-01T21:02:22.384Z,99435.23
2019-06-01T21:04:50.955Z,99438.02
2019-06-01T21:07:19.981Z,99440.98
2019-06-01T21:09:48.586Z,99438.03
2019-06-01T21:12:18.437Z,99434.75
2019-06-01T21:14:47.121Z,99438.01
2019-06-01T21:17:16.467Z,99437.16
2019-06-01T21:19:45.198Z,99437.93
2019-06-01T21:22:14.505Z,99430.98
2019-06-01T21:24:43.144Z,99431.46
2019-06-01T21:27:11.860Z,99430.77
2019-06-01T21:29:43.728Z,99434.36
2019-06-01T21:32:12.345Z,99433.27
2019-06-01T21:34:40.950Z,99432.79
2019-06-01T21:37:09.595Z,99434.50
2019-06-01T21:39:38.180Z,99432.68
2019-06-01T21:42:06.846Z,99432.88
2019-06-01T21:44:35.487Z,99434.94
2019-06-01T21:47:04.172Z,99442.34
2019-06-01T21:49:32.749Z,99448.84
2019-06-01T21:52:01.356Z,99445.26
2019-06-01T21:54:29.925Z,99445.64
2019-06-01T21:56:58.537Z,99438.83
2019-06-01T21:59:27.227Z,99442.16
2019-06-01T22:01:55.866Z,99436.37
2019-06-01T22:04:25.680Z,99434.24
2019-06-01T22:06:54.315Z,99435.87
2019-06-01T22:09:23.349Z,99438.77
2019-06-01T22:11:52.118Z,99435.58
2019-06-01T22:14:21.355Z,99439.63
2019-06-01T22:16:50.019Z,99438.78
2019-06-01T22:19:19.565Z,99444.44
2019-06-01T22:21:48.191Z,99443.70
2019-06-01T22:24:17.701Z,99447.56
2019-06-01T22:26:46.440Z,99452.84
2019-06-01T22:29:15.077Z,99458.41
2019-06-01T22:31:43.667Z,99463.06
2019-06-01T22:34:12.316Z,99461.16
2019-06-01T22:36:40.815Z,99467.77
2019-06-01T22:39:09.379Z,99475.43
2019-06-01T22:41:37.917Z,99478.36
2019-06-01T22:44:06.498Z,99474.01
2019-06-01T22:46:35.101Z,99478.63
2019-06-01T22:49:03.745Z,99484.09
2019-06-01T22:51:33.274Z,99481.94
2019-06-01T22:54:02.111Z,99490.53
2019-06-01T22:56:31.491Z,99486.75
2019-06-01T22:59:00.140Z,99483.91
2019-06-01T23:01:28.901Z,99478.43
2019-06-01T23:03:57.466Z,99481.36
2019-06-01T23:06:27.050Z,99475.44
2019-06-01T23:08:55.598Z,99473.04
2019-06-01T23:11:25.148Z,99469.55
2019-06-01T23:13:54.099Z,99465.78
2019-06-01T23:16:23.623Z,99458.50
2019-06-01T23:18:52.388Z,99459.36
2019-06-01T23:21:21.825Z,99459.47
2019-06-01T23:23:50.321Z,99455.48
2019-06-01T23:26:18.831Z,99458.05
2019-06-01T23:28:47.528Z,99449.63
2019-06-01T23:31:16.138Z,99440.20
2019-06-01T23:33:44.742Z,99446.70
2019-06-01T23:36:13.341Z,99451.80
2019-06-01T23:38:41.980Z,99451.34
2019-06-01T23:41:10.637Z,99452.17
2019-06-01T23:43:39.146Z,99452.55
2019-06-01T23:46:07.803Z,99452.55
2019-06-01T23:48:36.305Z,99441.97
2019-06-01T23:51:04.958Z,99446.90
2019-06-01T23:53:33.850Z,99446.50
2019-06-01T23:56:02.564Z,99445.84
2019-06-01T23:58:32.544Z,99446.02
